Time;durP1;ratioP1;P1;durP2;ratioP2;P2;SDS_P1;SDS_P2;PMS_P1;PMS_P2;Temp;Humidity;BMP_temperature;BMP_pressure;BME280_temperature;BME280_humidity;BME280_pressure;Samples;Min_cycle;Max_cycle;Signal;HPM_P1;HPM_P2
2022/11/19 00:07:01;;;;;;;2.97;2.77;;;;;11.60;98008.00;;;;16611221;28;20249;-48
2022/11/19 00:15:04;;;;;;;3.10;2.80;;;;;10.80;98016.00;;;;16603013;28;20218;-46
2022/11/19 00:23:07;;;;;;;3.17;2.87;;;;;11.20;98009.00;;;;16607022;28;20207;-48
2022/11/19 00:31:12;;;;;;;3.60;2.83;;;;;11.90;97998.00;;;;16608264;28;20779;-47
2022/11/19 00:39:16;;;;;;;4.20;2.70;;;;;12.20;97993.00;;;;16603898;28;20281;-47
2022/11/19 00:47:18;;;;;;;9.37;5.93;;;;;11.90;98002.00;;;;16588594;28;20235;-47
2022/11/19 00:55:22;;;;;;;2.87;2.57;;;;;11.80;97994.00;;;;16605625;28;20887;-47
2022/11/19 01:03:25;;;;;;;1.60;1.40;;;;;11.80;97987.00;;;;16595429;28;20285;-47
2022/11/19 01:11:30;;;;;;;1.97;1.87;;;;;11.10;98001.00;;;;16596403;28;20265;-47
2022/11/19 01:19:33;;;;;;;5.67;4.10;;;;;10.70;97995.00;;;;16588765;28;20215;-47
2022/11/19 01:27:37;;;;;;;1.90;1.73;;;;;10.60;97996.00;;;;16584273;28;20302;-47
2022/11/19 01:35:41;;;;;;;2.07;1.87;;;;;10.30;97994.00;;;;16589535;28;20294;-48
2022/11/19 01:43:47;;;;;;;2.73;1.40;;;;;10.10;97998.00;;;;16608459;28;20188;-46
2022/11/19 01:51:51;;;;;;;1.60;1.33;;;;;11.20;98001.00;;;;16608529;28;20252;-48
2022/11/19 01:59:55;;;;;;;2.83;2.63;;;;;11.30;98004.00;;;;16608176;28;20273;-46
2022/11/19 02:08:05;;;;;;;3.50;2.10;;;;;11.10;98011.00;;;;16603459;28;20232;-46
2022/11/19 02:16:13;;;;;;;1.57;1.47;;;;;10.80;98018.00;;;;16599008;28;20218;-47
2022/11/19 02:24:29;;;;;;;1.60;1.40;;;;;10.30;98024.00;;;;16585527;28;20698;-47
2022/11/19 02:32:34;;;;;;;2.00;1.63;;;;;9.80;98022.00;;;;16583289;28;20312;-47
2022/11/19 02:40:40;;;;;;;8.30;1.90;;;;;9.80;98034.00;;;;16580911;28;20733;-48
2022/11/19 02:48:47;;;;;;;2.10;1.73;;;;;10.00;98033.00;;;;16602174;28;20292;-49
2022/11/19 02:56:52;;;;;;;2.20;1.90;;;;;10.40;98027.00;;;;16599427;28;20224;-47
2022/11/19 03:04:56;;;;;;;6.13;1.90;;;;;11.00;98034.00;;;;16599718;28;20639;-47
2022/11/19 03:16:40;;;;;;;2.30;1.97;;;;;10.90;98035.00;;;;16595303;28;20208;-46
2022/11/19 03:21:33;;;;;;;2.90;2.70;;;;;10.60;98036.00;;;;16609989;28;20360;-47
2022/11/19 03:29:38;;;;;;;2.53;2.33;;;;;10.10;98032.00;;;;16611829;28;20703;-48
2022/11/19 03:37:43;;;;;;;3.87;2.70;;;;;10.90;98039.00;;;;16604456;28;20850;-47
2022/11/19 03:45:48;;;;;;;2.30;2.10;;;;;11.50;98037.00;;;;16613491;28;20301;-47
2022/11/19 03:53:51;;;;;;;3.47;2.90;;;;;11.70;98053.00;;;;16608608;28;20806;-47
2022/11/19 04:01:56;;;;;;;2.33;2.13;;;;;11.80;98051.00;;;;16606822;28;20224;-47
2022/11/19 04:10:00;;;;;;;2.93;2.70;;;;;12.10;98047.00;;;;16606313;28;20236;-47
2022/11/19 04:18:02;;;;;;;2.80;2.60;;;;;12.00;98058.00;;;;16600697;28;20867;-47
2022/11/19 04:26:06;;;;;;;2.67;2.47;;;;;12.50;98048.00;;;;16607184;28;20292;-48
2022/11/19 04:34:09;;;;;;;5.40;2.80;;;;;12.50;98046.00;;;;16603625;28;20351;-47
2022/11/19 04:42:13;;;;;;;3.70;2.80;;;;;12.20;98049.00;;;;16600201;28;20693;-48
2022/11/19 04:50:15;;;;;;;3.40;3.10;;;;;12.00;98048.00;;;;16610428;28;20299;-47
2022/11/19 04:58:19;;;;;;;2.90;2.40;;;;;11.40;98059.00;;;;16606287;28;20219;-47
2022/11/19 05:06:22;;;;;;;2.50;2.30;;;;;11.70;98058.00;;;;16597613;28;20231;-48
2022/11/19 05:14:25;;;;;;;2.77;2.57;;;;;11.70;98058.00;;;;16605979;28;20291;-47
2022/11/19 05:22:28;;;;;;;3.50;3.20;;;;;12.20;98055.00;;;;16596106;28;20776;-48
2022/11/19 05:30:32;;;;;;;3.10;2.90;;;;;11.90;98059.00;;;;16601323;28;20370;-47
2022/11/19 05:38:34;;;;;;;4.70;3.03;;;;;11.60;98050.00;;;;16598016;28;20255;-47
2022/11/19 05:46:39;;;;;;;3.47;3.27;;;;;11.30;98052.00;;;;16602065;28;20686;-48
2022/11/19 05:54:42;;;;;;;2.93;2.73;;;;;10.80;98068.00;;;;16603075;28;20671;-48
2022/11/19 06:02:46;;;;;;;3.20;2.90;;;;;11.60;98062.00;;;;16602823;28;20233;-47
2022/11/19 06:10:48;;;;;;;3.40;3.00;;;;;12.20;98060.00;;;;16597828;28;20628;-47
2022/11/19 06:18:52;;;;;;;3.83;3.27;;;;;11.40;98081.00;;;;16604612;28;20261;-47
2022/11/19 06:26:54;;;;;;;4.20;3.80;;;;;12.20;98078.00;;;;16605605;28;20774;-47
2022/11/19 06:34:58;;;;;;;4.30;3.80;;;;;12.20;98082.00;;;;16597950;28;20223;-47
2022/11/19 06:43:01;;;;;;;3.60;3.30;;;;;12.50;98093.00;;;;16605488;28;20198;-47
2022/11/19 06:51:05;;;;;;;6.03;5.43;;;;;10.80;98101.00;;;;16601441;28;20319;-47
2022/11/19 06:59:07;;;;;;;6.47;5.90;;;;;10.90;98117.00;;;;16630825;28;20703;-47
2022/11/19 07:07:11;;;;;;;8.10;7.40;;;;;10.60;98128.00;;;;16607237;28;20311;-48
2022/11/19 07:15:13;;;;;;;7.60;6.90;;;;;10.60;98135.00;;;;16602733;28;20690;-47
2022/11/19 07:23:19;;;;;;;3.80;3.50;;;;;11.30;98127.00;;;;16623878;28;20234;-47
2022/11/19 07:31:23;;;;;;;3.57;3.27;;;;;11.70;98138.00;;;;16609886;28;20313;-47
2022/11/19 07:39:27;;;;;;;3.83;3.53;;;;;11.80;98142.00;;;;16616642;28;20255;-47
2022/11/19 07:47:29;;;;;;;4.03;3.70;;;;;10.30;98166.00;;;;16595564;28;20302;-47
2022/11/19 07:55:33;;;;;;;3.90;3.60;;;;;10.20;98160.00;;;;16609195;28;20269;-48
2022/11/19 08:03:36;;;;;;;9.83;8.80;;;;;10.70;98160.00;;;;16615801;28;20558;-48
2022/11/19 08:11:40;;;;;;;7.60;6.90;;;;;11.00;98160.00;;;;16612454;28;20266;-47
2022/11/19 08:19:42;;;;;;;5.90;5.40;;;;;12.30;98158.00;;;;16613533;28;20482;-48
2022/11/19 08:27:46;;;;;;;6.23;5.27;;;;;12.50;98150.00;;;;16615429;28;20261;-48
2022/11/19 08:35:48;;;;;;;4.00;3.70;;;;;12.70;98154.00;;;;16603600;28;20258;-48
2022/11/19 08:43:52;;;;;;;2.83;2.63;;;;;12.90;98165.00;;;;16607318;28;20203;-48
2022/11/19 08:51:56;;;;;;;2.80;2.30;;;;;12.80;98165.00;;;;16627189;28;20295;-48
2022/11/19 09:00:00;;;;;;;1.83;1.40;;;;;13.30;98173.00;;;;16622159;28;20221;-49
2022/11/19 09:08:02;;;;;;;1.30;1.20;;;;;13.30;98177.00;;;;16620010;28;20705;-48
2022/11/19 09:16:07;;;;;;;1.90;1.40;;;;;14.50;98173.00;;;;16598592;28;20607;-47
2022/11/19 09:24:09;;;;;;;1.80;1.40;;;;;13.50;98175.00;;;;16604198;28;20264;-47
2022/11/19 09:32:13;;;;;;;1.20;1.10;;;;;13.20;98192.00;;;;16589907;28;20304;-47
2022/11/19 09:40:19;;;;;;;2.83;1.50;;;;;13.00;98198.00;;;;16589613;28;20255;-48
2022/11/19 09:48:31;;;;;;;1.13;1.10;;;;;13.60;98201.00;;;;16564186;28;20234;-48
2022/11/19 09:56:36;;;;;;;1.20;1.17;;;;;13.40;98200.00;;;;16577684;28;20222;-46
2022/11/19 10:04:40;;;;;;;1.60;1.00;;;;;13.00;98202.00;;;;16585693;28;20211;-47
2022/11/19 10:12:55;;;;;;;1.30;1.20;;;;;12.40;98206.00;;;;16587595;28;20274;-47
2022/11/19 10:21:04;;;;;;;1.90;1.20;;;;;12.20;98214.00;;;;16591710;28;20282;-46
2022/11/19 10:29:15;;;;;;;2.10;1.50;;;;;12.90;98197.00;;;;16604153;28;20232;-47
2022/11/19 10:37:21;;;;;;;5.23;2.07;;;;;12.60;98203.00;;;;16592004;28;20225;-48
2022/11/19 10:45:26;;;;;;;1.70;1.60;;;;;12.90;98188.00;;;;16597727;28;20226;-47
2022/11/19 10:53:35;;;;;;;3.83;1.80;;;;;12.80;98190.00;;;;16598331;28;20215;-47
2022/11/19 11:01:40;;;;;;;2.03;1.83;;;;;13.40;98182.00;;;;16594778;28;20775;-47
2022/11/19 11:09:44;;;;;;;2.57;2.10;;;;;13.10;98171.00;;;;16599019;28;20280;-47
2022/11/19 11:17:47;;;;;;;1.73;1.63;;;;;12.70;98181.00;;;;16589177;28;20238;-48
2022/11/19 11:25:59;;;;;;;10.87;8.83;;;;;12.50;98176.00;;;;16595168;28;20234;-46
2022/11/19 11:34:02;;;;;;;8.53;3.70;;;;;11.90;98179.00;;;;16595391;28;20665;-48
2022/11/19 11:42:10;;;;;;;1.57;1.47;;;;;11.90;98182.00;;;;16605212;28;20234;-48
2022/11/19 11:50:22;;;;;;;2.57;1.47;;;;;11.90;98179.00;;;;16613993;28;20284;-47
2022/11/19 11:58:28;;;;;;;3.73;2.30;;;;;12.40;98174.00;;;;16603594;28;20218;-48
2022/11/19 12:06:35;;;;;;;1.53;1.43;;;;;12.10;98186.00;;;;16612109;28;20585;-47
2022/11/19 12:14:43;;;;;;;1.43;1.30;;;;;12.00;98174.00;;;;16631226;28;20206;-48
2022/11/19 12:22:53;;;;;;;2.10;1.70;;;;;11.80;98191.00;;;;16614207;28;20230;-48
2022/11/19 12:31:04;;;;;;;4.20;2.00;;;;;11.80;98184.00;;;;16636116;28;20233;-48
2022/11/19 12:39:15;;;;;;;2.33;1.87;;;;;12.20;98177.00;;;;16633554;28;20249;-47
2022/11/19 12:47:28;;;;;;;4.10;2.43;;;;;11.90;98184.00;;;;16631218;28;20226;-48
2022/11/19 12:55:38;;;;;;;5.40;3.50;;;;;12.50;98179.00;;;;16619788;28;20214;-47
2022/11/19 13:03:52;;;;;;;4.30;3.07;;;;;12.80;98187.00;;;;16635290;28;20202;-48
2022/11/19 13:11:56;;;;;;;3.30;3.00;;;;;11.70;98190.00;;;;16636623;28;20227;-47
2022/11/19 13:20:04;;;;;;;2.03;1.83;;;;;11.50;98199.00;;;;16633831;28;20223;-47
2022/11/19 13:28:13;;;;;;;3.47;2.80;;;;;11.70;98185.00;;;;16637927;28;20219;-47
2022/11/19 13:36:19;;;;;;;3.50;2.33;;;;;11.90;98180.00;;;;16633068;28;20233;-46
2022/11/19 13:52:52;;;;;;;3.13;2.80;;;;;11.70;98194.00;;;;16552934;28;20331;-47
2022/11/19 14:01:12;;;;;;;3.00;2.20;;;;;11.80;98189.00;;;;16582069;28;20223;-47
2022/11/19 14:09:28;;;;;;;5.37;2.90;;;;;12.00;98187.00;;;;16540273;28;20255;-47
2022/11/19 14:34:27;;;;;;;3.83;3.10;;;;;12.10;98199.00;;;;16633824;28;20226;-46
2022/11/19 14:42:31;;;;;;;3.63;3.00;;;;;12.30;98197.00;;;;16625917;28;20227;-47
2022/11/19 14:50:34;;;;;;;3.60;3.07;;;;;12.70;98194.00;;;;16623824;28;20224;-47
2022/11/19 14:58:38;;;;;;;3.90;3.23;;;;;12.70;98203.00;;;;16638191;28;20307;-47
2022/11/19 15:06:40;;;;;;;3.93;3.63;;;;;12.20;98217.00;;;;16637279;28;20300;-46
2022/11/19 15:23:07;;;;;;;3.93;3.50;;;;;12.80;98199.00;;;;16630134;28;20288;-47
2022/11/19 15:31:23;;;;;;;4.97;2.77;;;;;12.90;98201.00;;;;16614402;28;20586;-46
2022/11/19 15:39:30;;;;;;;4.57;4.17;;;;;12.70;98206.00;;;;16613608;28;20641;-47
2022/11/19 15:47:41;;;;;;;6.57;4.60;;;;;12.60;98210.00;;;;16606692;28;20243;-46
2022/11/19 15:55:50;;;;;;;7.33;4.70;;;;;12.20;98206.00;;;;16606636;28;20241;-47
2022/11/19 16:03:54;;;;;;;7.83;6.07;;;;;11.20;98220.00;;;;16614692;28;20209;-47
2022/11/19 16:20:22;;;;;;;10.07;8.67;;;;;9.70;98260.00;;;;16623014;28;20219;-46
2022/11/19 16:28:29;;;;;;;8.73;7.93;;;;;9.90;98265.00;;;;16615373;28;20571;-45
2022/11/19 16:36:33;;;;;;;9.47;8.57;;;;;9.70;98265.00;;;;16606820;28;20246;-46
2022/11/19 16:44:35;;;;;;;10.20;7.90;;;;;9.70;98261.00;;;;16597610;28;20650;-46
2022/11/19 16:52:43;;;;;;;10.30;8.80;;;;;9.40;98275.00;;;;16606020;28;20275;-46
2022/11/19 17:00:48;;;;;;;9.80;8.80;;;;;9.40;98290.00;;;;16610541;28;20211;-47
2022/11/19 17:09:00;;;;;;;10.70;9.60;;;;;9.60;98288.00;;;;16624806;28;20227;-46
2022/11/19 17:17:03;;;;;;;12.37;9.63;;;;;9.90;98293.00;;;;16618852;28;20222;-46
2022/11/19 17:25:14;;;;;;;9.53;8.60;;;;;10.70;98291.00;;;;16610856;28;20226;-47
2022/11/19 17:33:17;;;;;;;10.50;9.50;;;;;10.70;98292.00;;;;16603551;28;20212;-47
2022/11/19 17:49:40;;;;;;;10.60;9.50;;;;;9.90;98305.00;;;;16579758;28;20262;-47
2022/11/19 17:57:44;;;;;;;12.17;10.63;;;;;10.20;98306.00;;;;16583316;28;20238;-47
2022/11/19 18:05:48;;;;;;;10.50;9.40;;;;;9.80;98328.00;;;;16591404;28;20309;-46
2022/11/19 18:13:54;;;;;;;10.73;9.40;;;;;10.70;98324.00;;;;16566280;28;20707;-47
2022/11/19 18:21:57;;;;;;;12.07;10.87;;;;;10.70;98325.00;;;;16549627;28;20219;-47
2022/11/19 18:30:00;;;;;;;12.47;11.27;;;;;11.70;98312.00;;;;16575756;28;20846;-47
2022/11/19 18:38:03;;;;;;;17.27;15.67;;;;;11.50;98307.00;;;;16596416;28;20242;-47
2022/11/19 18:46:07;;;;;;;13.37;11.43;;;;;11.50;98318.00;;;;16612490;28;20437;-47
2022/11/19 18:54:11;;;;;;;14.07;12.70;;;;;11.50;98330.00;;;;16629458;28;20303;-47
2022/11/19 19:02:15;;;;;;;25.33;22.73;;;;;11.70;98310.00;;;;16622742;28;20225;-48
2022/11/19 19:10:17;;;;;;;14.60;12.30;;;;;11.30;98323.00;;;;16622384;28;20254;-47
2022/11/19 19:18:21;;;;;;;14.03;12.03;;;;;11.00;98330.00;;;;16639915;28;20221;-47
2022/11/19 19:26:24;;;;;;;12.23;10.93;;;;;11.80;98333.00;;;;16608497;28;20304;-47
2022/11/19 19:34:29;;;;;;;14.70;12.90;;;;;11.80;98336.00;;;;16629597;28;20350;-47
2022/11/19 19:42:32;;;;;;;12.90;11.70;;;;;11.70;98335.00;;;;16641164;28;20918;-47
2022/11/19 19:50:35;;;;;;;17.10;15.50;;;;;12.00;98337.00;;;;16621854;28;20234;-48
2022/11/19 19:58:38;;;;;;;13.77;12.50;;;;;12.00;98346.00;;;;16633489;28;20224;-47
2022/11/19 20:06:45;;;;;;;11.70;10.50;;;;;11.10;98363.00;;;;16607350;28;20227;-47
2022/11/19 20:14:48;;;;;;;15.30;13.80;;;;;10.80;98366.00;;;;16602934;28;20313;-48
2022/11/19 20:22:52;;;;;;;18.03;16.10;;;;;11.20;98368.00;;;;16601943;28;20215;-47
2022/11/19 20:31:03;;;;;;;41.60;29.23;;;;;11.70;98377.00;;;;16608294;28;20234;-47
2022/11/19 20:39:07;;;;;;;19.57;16.10;;;;;11.20;98379.00;;;;16604648;28;20231;-46
2022/11/19 20:47:10;;;;;;;16.50;14.80;;;;;11.80;98375.00;;;;16601014;28;20221;-47
2022/11/19 20:55:14;;;;;;;16.77;14.90;;;;;12.20;98379.00;;;;16604180;28;20269;-48
2022/11/19 21:03:16;;;;;;;15.47;13.73;;;;;11.40;98393.00;;;;16603090;28;20203;-47
2022/11/19 21:11:20;;;;;;;17.07;15.00;;;;;10.70;98394.00;;;;16618728;28;20776;-47
2022/11/19 21:19:22;;;;;;;16.60;14.80;;;;;9.80;98403.00;;;;16631584;28;20203;-47
2022/11/19 21:27:26;;;;;;;15.00;13.47;;;;;9.70;98413.00;;;;16631039;28;20226;-48
2022/11/19 21:35:29;;;;;;;15.30;12.70;;;;;10.00;98410.00;;;;16623954;28;20237;-48
2022/11/19 21:43:34;;;;;;;13.40;12.13;;;;;10.30;98402.00;;;;16625752;28;20209;-48
2022/11/19 21:51:36;;;;;;;14.97;11.37;;;;;11.00;98393.00;;;;16616128;28;20286;-47
2022/11/19 21:59:41;;;;;;;12.57;11.27;;;;;11.10;98402.00;;;;16621177;28;20223;-47
2022/11/19 22:07:45;;;;;;;12.53;11.27;;;;;11.30;98404.00;;;;16616108;28;20223;-47
2022/11/19 22:15:49;;;;;;;13.73;12.33;;;;;10.70;98402.00;;;;16595947;28;20227;-47
2022/11/19 22:23:52;;;;;;;13.20;11.90;;;;;10.90;98403.00;;;;16596116;28;20196;-47
2022/11/19 22:31:56;;;;;;;11.83;10.73;;;;;11.10;98402.00;;;;16600891;28;20238;-47
2022/11/19 22:39:59;;;;;;;13.23;10.93;;;;;11.40;98394.00;;;;16593655;28;20233;-47
2022/11/19 22:48:03;;;;;;;11.73;10.53;;;;;11.60;98385.00;;;;16594181;28;20285;-47
2022/11/19 22:56:07;;;;;;;11.27;10.17;;;;;10.60;98389.00;;;;16597090;28;20226;-47
2022/11/19 23:04:15;;;;;;;16.50;14.80;;;;;10.20;98390.00;;;;16600464;28;20686;-47
2022/11/19 23:20:38;;;;;;;14.20;12.27;;;;;10.80;98390.00;;;;16585213;28;20227;-48
2022/11/19 23:28:41;;;;;;;14.90;13.20;;;;;9.90;98397.00;;;;16603088;28;20219;-47
2022/11/19 23:36:45;;;;;;;12.03;10.80;;;;;10.20;98408.00;;;;16604156;28;20289;-47
2022/11/19 23:44:47;;;;;;;12.30;11.10;;;;;10.20;98403.00;;;;16628213;28;20257;-47
2022/11/19 23:52:51;;;;;;;11.60;10.40;;;;;9.50;98407.00;;;;16635215;28;20310;-48
